createdAt,value
2023-01-19T00:09:33.235Z,99685.91
2023-01-19T00:19:34.562Z,99704.59
2023-01-19T00:29:36.051Z,99699.50
2023-01-19T00:39:37.558Z,99699.72
2023-01-19T00:49:39.208Z,99697.22
2023-01-19T00:59:40.685Z,99706.56
2023-01-19T01:09:42.065Z,99718.44
2023-01-19T01:19:43.503Z,99716.84
2023-01-19T01:29:47.751Z,99713.66
2023-01-19T01:39:49.214Z,99721.41
2023-01-19T01:49:56.131Z,99719.72
2023-01-19T01:59:58.452Z,99706.97
2023-01-19T02:10:18.235Z,99712.16
2023-01-19T02:20:23.929Z,99702.84
2023-01-19T02:30:25.762Z,99712.06
2023-01-19T02:40:28.422Z,99697.72
2023-01-19T02:50:36.112Z,99694.22
2023-01-19T03:01:05.211Z,99705.41
2023-01-19T03:11:10.326Z,99701.97
2023-01-19T03:21:14.088Z,99686.69
2023-01-19T03:31:20.800Z,99685.88
2023-01-19T03:41:24.491Z,99685.97
2023-01-19T03:51:26.836Z,99681.75
2023-01-19T04:01:28.408Z,99690.19
2023-01-19T04:11:29.983Z,99688.25
2023-01-19T04:21:31.393Z,99671.84
2023-01-19T04:31:33.270Z,99690.56
2023-01-19T04:41:34.713Z,99677.72
2023-01-19T04:51:36.892Z,99697.31
2023-01-19T05:01:38.518Z,99698.09
2023-01-19T05:11:39.959Z,99704.84
2023-01-19T05:21:41.375Z,99720.09
2023-01-19T05:31:43.102Z,99727.72
2023-01-19T05:41:45.508Z,99728.53
2023-01-19T05:51:47.259Z,99742.19
2023-01-19T06:01:48.715Z,99738.81
2023-01-19T06:11:50.400Z,99745.63
2023-01-19T06:21:52.320Z,99764.25
2023-01-19T06:31:54.069Z,99771.03
2023-01-19T06:41:55.567Z,99790.50
2023-01-19T06:51:56.972Z,99801.91
2023-01-19T07:01:58.945Z,99816.28
2023-01-19T07:12:00.611Z,99830.84
2023-01-19T07:22:03.128Z,99848.69
2023-01-19T07:32:04.741Z,99864.94
2023-01-19T07:42:07.153Z,99862.50
2023-01-19T07:52:09.510Z,99887.16
2023-01-19T08:02:12.030Z,99893.19
2023-01-19T08:12:13.431Z,99918.69
2023-01-19T08:22:14.952Z,99929.03
2023-01-19T08:32:17.120Z,99953.75
2023-01-19T08:42:18.611Z,99975.09
2023-01-19T08:52:20.053Z,99988.03
2023-01-19T09:02:21.691Z,100003.34
2023-01-19T09:12:23.316Z,100001.78
2023-01-19T09:22:25.411Z,100013.84
2023-01-19T09:32:26.938Z,100028.44
2023-01-19T09:42:35.972Z,100041.41
2023-01-19T09:52:43.641Z,100062.78
2023-01-19T10:02:52.956Z,100070.41
2023-01-19T10:13:13.449Z,100079.88
2023-01-19T10:23:34.772Z,100075.72
2023-01-19T10:33:38.055Z,100085.28
2023-01-19T10:43:47.185Z,100093.03
2023-01-19T10:53:54.696Z,100091.59
2023-01-19T11:04:05.330Z,100102.72
2023-01-19T11:14:12.625Z,100112.31
2023-01-19T11:24:16.365Z,100108.16
2023-01-19T11:34:30.104Z,100103.97
2023-01-19T11:44:36.012Z,100116.03
2023-01-19T11:54:46.771Z,100125.53
2023-01-19T12:04:50.483Z,100109.41
2023-01-19T12:15:14.955Z,100112.13
2023-01-19T12:25:24.886Z,100107.09
2023-01-19T12:35:57.350Z,100104.63
2023-01-19T12:45:58.935Z,100113.25
2023-01-19T12:56:08.628Z,100122.78
2023-01-19T13:06:10.116Z,100130.53
2023-01-19T13:16:29.555Z,100127.16
2023-01-19T13:26:34.546Z,100126.44
2023-01-19T13:36:38.276Z,100123.97
2023-01-19T13:46:40.961Z,100130.91
2023-01-19T13:56:54.716Z,100140.28
2023-01-19T14:07:03.594Z,100153.19
2023-01-19T14:17:16.416Z,100164.22
2023-01-19T14:27:19.992Z,100177.00
2023-01-19T14:37:26.306Z,100184.59
2023-01-19T14:47:31.939Z,100196.53
2023-01-19T14:57:36.074Z,100184.50
2023-01-19T15:07:41.447Z,100187.09
2023-01-19T15:17:43.261Z,100199.78
2023-01-19T15:27:46.035Z,100215.75
2023-01-19T15:37:48.868Z,100219.88
2023-01-19T15:47:50.343Z,100218.94
2023-01-19T15:57:51.748Z,100238.34
2023-01-19T16:07:53.249Z,100256.97
2023-01-19T16:17:54.731Z,100260.28
2023-01-19T16:27:57.063Z,100266.19
2023-01-19T16:37:58.513Z,100279.59
2023-01-19T16:48:00.319Z,100289.69
2023-01-19T16:58:01.922Z,100300.59
2023-01-19T17:08:03.488Z,100309.91
2023-01-19T17:18:05.374Z,100313.22
2023-01-19T17:28:06.835Z,100317.38
2023-01-19T17:38:08.412Z,100317.13
2023-01-19T17:48:09.955Z,100319.81
2023-01-19T17:58:11.462Z,100326.56
2023-01-19T18:08:12.797Z,100332.38
2023-01-19T18:18:14.556Z,100334.06
2023-01-19T18:28:15.958Z,100334.88
2023-01-19T18:38:17.629Z,100341.69
2023-01-19T18:48:19.198Z,100357.78
2023-01-19T18:58:20.876Z,100350.91
2023-01-19T19:08:22.583Z,100352.72
2023-01-19T19:18:24.171Z,100357.78
2023-01-19T19:28:25.638Z,100366.31
2023-01-19T19:38:28.043Z,100371.22
2023-01-19T19:48:30.191Z,100372.06
2023-01-19T19:58:32.339Z,100383.75
2023-01-19T20:08:34.071Z,100383.44
2023-01-19T20:18:36.809Z,100397.88
2023-01-19T20:28:39.094Z,100402.63
2023-01-19T20:38:41.794Z,100403.78
2023-01-19T20:48:43.215Z,100426.22
2023-01-19T20:58:44.738Z,100447.84
2023-01-19T21:08:46.533Z,100458.69
2023-01-19T21:18:48.012Z,100483.13
2023-01-19T21:28:50.505Z,100490.38
2023-01-19T21:38:52.327Z,100502.78
2023-01-19T21:48:53.799Z,100520.25
2023-01-19T21:58:56.684Z,100526.03
2023-01-19T22:08:58.390Z,100529.44
2023-01-19T22:19:01.981Z,100540.53
2023-01-19T22:29:06.312Z,100530.84
2023-01-19T22:39:10.138Z,100539.88
2023-01-19T22:49:14.107Z,100547.91
2023-01-19T22:59:15.709Z,100552.59
2023-01-19T23:09:18.058Z,100560.16
2023-01-19T23:19:19.625Z,100581.38
2023-01-19T23:29:21.215Z,100576.69
2023-01-19T23:39:22.961Z,100585.75
2023-01-19T23:49:24.500Z,100589.84
2023-01-19T23:59:26.071Z,100594.13
